sensor_id;sensor_type;location;lat;lon;timestamp;P1;P2;P0
46681;PMS5003;34101;53.430;-2.224;2023-07-13T00:01:35;6;4;
46681;PMS5003;34101;53.430;-2.224;2023-07-13T00:04:03;2;2;
46681;PMS5003;34101;53.430;-2.224;2023-07-13T00:06:30;4;4;
46681;PMS5003;34101;53.430;-2.224;2023-07-13T00:08:58;6;4;
46681;PMS5003;34101;53.430;-2.224;2023-07-13T00:11:26;5;4;
46681;PMS5003;34101;53.430;-2.224;2023-07-13T00:13:54;3;3;
46681;PMS5003;34101;53.430;-2.224;2023-07-13T00:16:22;3;3;
46681;PMS5003;34101;53.430;-2.224;2023-07-13T00:18:49;2;2;
46681;PMS5003;34101;53.430;-2.224;2023-07-13T00:21:17;3;3;
46681;PMS5003;34101;53.430;-2.224;2023-07-13T00:23:44;5;3;
46681;PMS5003;34101;53.430;-2.224;2023-07-13T00:26:11;4;3;
46681;PMS5003;34101;53.430;-2.224;2023-07-13T00:28:39;4;3;
46681;PMS5003;34101;53.430;-2.224;2023-07-13T00:31:07;3;3;
46681;PMS5003;34101;53.430;-2.224;2023-07-13T00:33:36;7;5;
46681;PMS5003;34101;53.430;-2.224;2023-07-13T00:36:04;5;4;
46681;PMS5003;34101;53.430;-2.224;2023-07-13T00:38:31;4;4;
46681;PMS5003;34101;53.430;-2.224;2023-07-13T00:40:58;3;3;
46681;PMS5003;34101;53.430;-2.224;2023-07-13T00:43:27;4;4;
46681;PMS5003;34101;53.430;-2.224;2023-07-13T00:46:29;3;3;
46681;PMS5003;34101;53.430;-2.224;2023-07-13T00:48:59;3;3;
46681;PMS5003;34101;53.430;-2.224;2023-07-13T00:51:30;6;5;
46681;PMS5003;34101;53.430;-2.224;2023-07-13T00:54:03;4;4;
46681;PMS5003;34101;53.430;-2.224;2023-07-13T00:56:33;3;3;
46681;PMS5003;34101;53.430;-2.224;2023-07-13T00:59:02;5;5;
46681;PMS5003;34101;53.430;-2.224;2023-07-13T01:01:31;7;6;
46681;PMS5003;34101;53.430;-2.224;2023-07-13T01:03:59;4;4;
46681;PMS5003;34101;53.430;-2.224;2023-07-13T01:06:26;5;4;
46681;PMS5003;34101;53.430;-2.224;2023-07-13T01:08:55;5;5;
46681;PMS5003;34101;53.430;-2.224;2023-07-13T01:11:24;4;3;
46681;PMS5003;34101;53.430;-2.224;2023-07-13T01:13:53;5;5;
46681;PMS5003;34101;53.430;-2.224;2023-07-13T01:16:23;5;5;
46681;PMS5003;34101;53.430;-2.224;2023-07-13T01:18:52;7;7;
46681;PMS5003;34101;53.430;-2.224;2023-07-13T01:21:20;4;4;
46681;PMS5003;34101;53.430;-2.224;2023-07-13T01:23:48;6;6;
46681;PMS5003;34101;53.430;-2.224;2023-07-13T01:26:15;6;6;
46681;PMS5003;34101;53.430;-2.224;2023-07-13T01:28:43;9;7;
46681;PMS5003;34101;53.430;-2.224;2023-07-13T01:31:11;5;5;
46681;PMS5003;34101;53.430;-2.224;2023-07-13T01:33:40;7;5;
46681;PMS5003;34101;53.430;-2.224;2023-07-13T01:36:09;4;4;
46681;PMS5003;34101;53.430;-2.224;2023-07-13T01:38:38;6;5;
46681;PMS5003;34101;53.430;-2.224;2023-07-13T01:41:05;7;5;
46681;PMS5003;34101;53.430;-2.224;2023-07-13T01:43:32;7;5;
46681;PMS5003;34101;53.430;-2.224;2023-07-13T01:46:00;5;5;
46681;PMS5003;34101;53.430;-2.224;2023-07-13T01:48:27;7;6;
46681;PMS5003;34101;53.430;-2.224;2023-07-13T01:50:55;6;6;
46681;PMS5003;34101;53.430;-2.224;2023-07-13T01:53:22;5;5;
46681;PMS5003;34101;53.430;-2.224;2023-07-13T01:55:49;6;6;
46681;PMS5003;34101;53.430;-2.224;2023-07-13T01:58:17;7;7;
46681;PMS5003;34101;53.430;-2.224;2023-07-13T02:00:47;8;7;
46681;PMS5003;34101;53.430;-2.224;2023-07-13T02:03:14;9;7;
46681;PMS5003;34101;53.430;-2.224;2023-07-13T02:05:42;7;7;
46681;PMS5003;34101;53.430;-2.224;2023-07-13T02:08:09;8;7;
46681;PMS5003;34101;53.430;-2.224;2023-07-13T02:10:37;6;6;
46681;PMS5003;34101;53.430;-2.224;2023-07-13T02:13:05;6;6;
46681;PMS5003;34101;53.430;-2.224;2023-07-13T02:15:33;5;5;
46681;PMS5003;34101;53.430;-2.224;2023-07-13T02:18:01;8;7;
46681;PMS5003;34101;53.430;-2.224;2023-07-13T02:20:28;10;9;
46681;PMS5003;34101;53.430;-2.224;2023-07-13T02:22:56;6;6;
46681;PMS5003;34101;53.430;-2.224;2023-07-13T02:25:23;9;8;
46681;PMS5003;34101;53.430;-2.224;2023-07-13T02:27:51;7;6;
46681;PMS5003;34101;53.430;-2.224;2023-07-13T02:30:18;7;6;
46681;PMS5003;34101;53.430;-2.224;2023-07-13T02:32:45;8;8;
46681;PMS5003;34101;53.430;-2.224;2023-07-13T02:35:13;6;6;
46681;PMS5003;34101;53.430;-2.224;2023-07-13T02:37:41;8;7;
46681;PMS5003;34101;53.430;-2.224;2023-07-13T02:40:09;8;8;
46681;PMS5003;34101;53.430;-2.224;2023-07-13T02:42:37;10;8;
46681;PMS5003;34101;53.430;-2.224;2023-07-13T02:45:06;9;9;
46681;PMS5003;34101;53.430;-2.224;2023-07-13T02:47:35;8;8;
46681;PMS5003;34101;53.430;-2.224;2023-07-13T02:50:03;9;9;
46681;PMS5003;34101;53.430;-2.224;2023-07-13T02:52:32;6;6;
46681;PMS5003;34101;53.430;-2.224;2023-07-13T02:54:59;9;7;
46681;PMS5003;34101;53.430;-2.224;2023-07-13T02:57:27;10;10;
46681;PMS5003;34101;53.430;-2.224;2023-07-13T02:59:54;10;9;
46681;PMS5003;34101;53.430;-2.224;2023-07-13T03:02:22;10;7;
46681;PMS5003;34101;53.430;-2.224;2023-07-13T03:04:49;8;8;
46681;PMS5003;34101;53.430;-2.224;2023-07-13T03:07:17;8;8;
46681;PMS5003;34101;53.430;-2.224;2023-07-13T03:09:44;10;7;
46681;PMS5003;34101;53.430;-2.224;2023-07-13T03:12:11;8;8;
46681;PMS5003;34101;53.430;-2.224;2023-07-13T03:14:39;9;8;
46681;PMS5003;34101;53.430;-2.224;2023-07-13T03:17:06;8;8;
46681;PMS5003;34101;53.430;-2.224;2023-07-13T03:19:33;8;7;
46681;PMS5003;34101;53.430;-2.224;2023-07-13T03:22:01;7;7;
46681;PMS5003;34101;53.430;-2.224;2023-07-13T03:24:28;10;9;
46681;PMS5003;34101;53.430;-2.224;2023-07-13T03:26:56;7;7;
46681;PMS5003;34101;53.430;-2.224;2023-07-13T03:29:23;9;9;
46681;PMS5003;34101;53.430;-2.224;2023-07-13T03:31:50;9;7;
46681;PMS5003;34101;53.430;-2.224;2023-07-13T03:34:18;9;9;
46681;PMS5003;34101;53.430;-2.224;2023-07-13T03:36:45;7;7;
46681;PMS5003;34101;53.430;-2.224;2023-07-13T03:39:12;9;8;
46681;PMS5003;34101;53.430;-2.224;2023-07-13T03:41:40;10;8;
46681;PMS5003;34101;53.430;-2.224;2023-07-13T03:44:07;9;9;
46681;PMS5003;34101;53.430;-2.224;2023-07-13T03:46:35;11;8;
46681;PMS5003;34101;53.430;-2.224;2023-07-13T03:49:03;5;5;
46681;PMS5003;34101;53.430;-2.224;2023-07-13T03:51:31;8;8;
46681;PMS5003;34101;53.430;-2.224;2023-07-13T03:53:58;8;8;
46681;PMS5003;34101;53.430;-2.224;2023-07-13T03:56:26;8;7;
46681;PMS5003;34101;53.430;-2.224;2023-07-13T03:58:54;12;10;
46681;PMS5003;34101;53.430;-2.224;2023-07-13T04:01:22;10;9;
46681;PMS5003;34101;53.430;-2.224;2023-07-13T04:03:51;10;8;
46681;PMS5003;34101;53.430;-2.224;2023-07-13T04:06:20;8;7;
46681;PMS5003;34101;53.430;-2.224;2023-07-13T04:08:49;9;9;
46681;PMS5003;34101;53.430;-2.224;2023-07-13T04:11:20;8;8;
46681;PMS5003;34101;53.430;-2.224;2023-07-13T04:13:49;9;9;
46681;PMS5003;34101;53.430;-2.224;2023-07-13T04:16:18;8;7;
46681;PMS5003;34101;53.430;-2.224;2023-07-13T04:18:46;12;10;
46681;PMS5003;34101;53.430;-2.224;2023-07-13T04:21:14;7;7;
46681;PMS5003;34101;53.430;-2.224;2023-07-13T04:23:42;10;9;
46681;PMS5003;34101;53.430;-2.224;2023-07-13T04:26:10;8;8;
46681;PMS5003;34101;53.430;-2.224;2023-07-13T04:28:37;8;8;
46681;PMS5003;34101;53.430;-2.224;2023-07-13T04:31:05;8;8;
46681;PMS5003;34101;53.430;-2.224;2023-07-13T04:33:32;13;12;
46681;PMS5003;34101;53.430;-2.224;2023-07-13T04:35:59;9;9;
46681;PMS5003;34101;53.430;-2.224;2023-07-13T04:38:28;8;8;
46681;PMS5003;34101;53.430;-2.224;2023-07-13T04:40:58;9;8;
46681;PMS5003;34101;53.430;-2.224;2023-07-13T04:43:28;8;8;
46681;PMS5003;34101;53.430;-2.224;2023-07-13T04:45:56;8;8;
46681;PMS5003;34101;53.430;-2.224;2023-07-13T04:48:29;10;8;
46681;PMS5003;34101;53.430;-2.224;2023-07-13T04:50:57;8;8;
46681;PMS5003;34101;53.430;-2.224;2023-07-13T04:53:25;7;7;
46681;PMS5003;34101;53.430;-2.224;2023-07-13T04:55:54;7;7;
46681;PMS5003;34101;53.430;-2.224;2023-07-13T04:58:22;9;9;
46681;PMS5003;34101;53.430;-2.224;2023-07-13T05:00:51;10;8;
46681;PMS5003;34101;53.430;-2.224;2023-07-13T05:03:19;9;7;
46681;PMS5003;34101;53.430;-2.224;2023-07-13T05:05:54;7;7;
46681;PMS5003;34101;53.430;-2.224;2023-07-13T05:08:22;4;4;
46681;PMS5003;34101;53.430;-2.224;2023-07-13T05:10:50;9;7;
46681;PMS5003;34101;53.430;-2.224;2023-07-13T05:13:18;8;8;
46681;PMS5003;34101;53.430;-2.224;2023-07-13T05:15:47;8;6;
46681;PMS5003;34101;53.430;-2.224;2023-07-13T05:18:21;6;6;
46681;PMS5003;34101;53.430;-2.224;2023-07-13T05:20:56;9;9;
46681;PMS5003;34101;53.430;-2.224;2023-07-13T05:23:24;7;6;
46681;PMS5003;34101;53.430;-2.224;2023-07-13T05:25:51;6;6;
46681;PMS5003;34101;53.430;-2.224;2023-07-13T05:28:19;6;6;
46681;PMS5003;34101;53.430;-2.224;2023-07-13T05:30:46;9;8;
46681;PMS5003;34101;53.430;-2.224;2023-07-13T05:33:14;7;7;
46681;PMS5003;34101;53.430;-2.224;2023-07-13T05:35:42;6;6;
46681;PMS5003;34101;53.430;-2.224;2023-07-13T05:38:10;8;7;
46681;PMS5003;34101;53.430;-2.224;2023-07-13T05:40:38;7;5;
46681;PMS5003;34101;53.430;-2.224;2023-07-13T05:43:06;7;7;
46681;PMS5003;34101;53.430;-2.224;2023-07-13T05:45:34;8;8;
46681;PMS5003;34101;53.430;-2.224;2023-07-13T05:48:01;7;7;
46681;PMS5003;34101;53.430;-2.224;2023-07-13T05:50:29;7;6;
46681;PMS5003;34101;53.430;-2.224;2023-07-13T05:52:56;7;7;
46681;PMS5003;34101;53.430;-2.224;2023-07-13T05:55:24;8;8;
46681;PMS5003;34101;53.430;-2.224;2023-07-13T05:57:51;6;6;
46681;PMS5003;34101;53.430;-2.224;2023-07-13T06:00:19;5;5;
46681;PMS5003;34101;53.430;-2.224;2023-07-13T06:02:47;8;7;
46681;PMS5003;34101;53.430;-2.224;2023-07-13T06:05:14;6;6;
46681;PMS5003;34101;53.430;-2.224;2023-07-13T06:07:42;5;5;
46681;PMS5003;34101;53.430;-2.224;2023-07-13T06:10:09;5;5;
46681;PMS5003;34101;53.430;-2.224;2023-07-13T06:12:37;3;3;
46681;PMS5003;34101;53.430;-2.224;2023-07-13T06:15:04;6;6;
46681;PMS5003;34101;53.430;-2.224;2023-07-13T06:17:33;13;13;
46681;PMS5003;34101;53.430;-2.224;2023-07-13T06:20:01;5;5;
46681;PMS5003;34101;53.430;-2.224;2023-07-13T06:22:30;6;6;
46681;PMS5003;34101;53.430;-2.224;2023-07-13T06:24:57;5;5;
46681;PMS5003;34101;53.430;-2.224;2023-07-13T06:27:25;6;6;
46681;PMS5003;34101;53.430;-2.224;2023-07-13T06:29:52;10;7;
46681;PMS5003;34101;53.430;-2.224;2023-07-13T06:32:19;4;4;
46681;PMS5003;34101;53.430;-2.224;2023-07-13T06:34:47;5;4;
46681;PMS5003;34101;53.430;-2.224;2023-07-13T06:37:14;7;6;
46681;PMS5003;34101;53.430;-2.224;2023-07-13T06:39:42;5;5;
46681;PMS5003;34101;53.430;-2.224;2023-07-13T06:42:09;3;3;
46681;PMS5003;34101;53.430;-2.224;2023-07-13T06:44:37;7;6;
46681;PMS5003;34101;53.430;-2.224;2023-07-13T06:47:04;6;6;
46681;PMS5003;34101;53.430;-2.224;2023-07-13T06:49:32;4;4;
46681;PMS5003;34101;53.430;-2.224;2023-07-13T06:52:00;5;5;
46681;PMS5003;34101;53.430;-2.224;2023-07-13T06:54:27;5;5;
46681;PMS5003;34101;53.430;-2.224;2023-07-13T06:56:55;7;6;
46681;PMS5003;34101;53.430;-2.224;2023-07-13T06:59:22;3;3;
46681;PMS5003;34101;53.430;-2.224;2023-07-13T07:01:49;3;3;
46681;PMS5003;34101;53.430;-2.224;2023-07-13T07:04:17;7;4;
46681;PMS5003;34101;53.430;-2.224;2023-07-13T07:06:45;5;3;
46681;PMS5003;34101;53.430;-2.224;2023-07-13T07:09:13;4;4;
46681;PMS5003;34101;53.430;-2.224;2023-07-13T07:11:40;3;3;
46681;PMS5003;34101;53.430;-2.224;2023-07-13T07:14:08;5;5;
46681;PMS5003;34101;53.430;-2.224;2023-07-13T07:16:35;5;3;
46681;PMS5003;34101;53.430;-2.224;2023-07-13T07:19:03;3;3;
46681;PMS5003;34101;53.430;-2.224;2023-07-13T07:21:30;4;4;
46681;PMS5003;34101;53.430;-2.224;2023-07-13T07:23:58;2;2;
46681;PMS5003;34101;53.430;-2.224;2023-07-13T07:26:25;3;3;
46681;PMS5003;34101;53.430;-2.224;2023-07-13T07:28:52;4;4;
46681;PMS5003;34101;53.430;-2.224;2023-07-13T07:31:20;4;4;
46681;PMS5003;34101;53.430;-2.224;2023-07-13T07:33:47;3;3;
46681;PMS5003;34101;53.430;-2.224;2023-07-13T07:36:15;3;3;
46681;PMS5003;34101;53.430;-2.224;2023-07-13T07:38:43;6;5;
46681;PMS5003;34101;53.430;-2.224;2023-07-13T07:41:11;3;3;
46681;PMS5003;34101;53.430;-2.224;2023-07-13T07:43:39;5;4;
46681;PMS5003;34101;53.430;-2.224;2023-07-13T07:46:06;3;3;
46681;PMS5003;34101;53.430;-2.224;2023-07-13T07:48:34;4;4;
46681;PMS5003;34101;53.430;-2.224;2023-07-13T07:51:01;3;3;
46681;PMS5003;34101;53.430;-2.224;2023-07-13T07:53:28;4;3;
46681;PMS5003;34101;53.430;-2.224;2023-07-13T07:55:56;1;1;
46681;PMS5003;34101;53.430;-2.224;2023-07-13T07:58:23;3;3;
46681;PMS5003;34101;53.430;-2.224;2023-07-13T08:00:52;3;3;
46681;PMS5003;34101;53.430;-2.224;2023-07-13T08:03:19;3;3;
46681;PMS5003;34101;53.430;-2.224;2023-07-13T08:05:46;4;4;
46681;PMS5003;34101;53.430;-2.224;2023-07-13T08:08:14;3;3;
46681;PMS5003;34101;53.430;-2.224;2023-07-13T08:10:41;3;3;
46681;PMS5003;34101;53.430;-2.224;2023-07-13T08:13:09;5;4;
46681;PMS5003;34101;53.430;-2.224;2023-07-13T08:15:37;4;4;
46681;PMS5003;34101;53.430;-2.224;2023-07-13T08:18:05;2;2;
46681;PMS5003;34101;53.430;-2.224;2023-07-13T08:20:36;3;3;
46681;PMS5003;34101;53.430;-2.224;2023-07-13T08:23:04;3;3;
46681;PMS5003;34101;53.430;-2.224;2023-07-13T08:25:31;2;2;
46681;PMS5003;34101;53.430;-2.224;2023-07-13T08:27:58;2;2;
46681;PMS5003;34101;53.430;-2.224;2023-07-13T08:30:26;3;3;
46681;PMS5003;34101;53.430;-2.224;2023-07-13T08:32:53;2;2;
46681;PMS5003;34101;53.430;-2.224;2023-07-13T08:35:21;3;3;
46681;PMS5003;34101;53.430;-2.224;2023-07-13T08:37:48;3;3;
46681;PMS5003;34101;53.430;-2.224;2023-07-13T08:40:16;3;3;
46681;PMS5003;34101;53.430;-2.224;2023-07-13T08:42:46;1;1;
46681;PMS5003;34101;53.430;-2.224;2023-07-13T08:45:22;1;1;
46681;PMS5003;34101;53.430;-2.224;2023-07-13T08:47:52;4;2;
46681;PMS5003;34101;53.430;-2.224;2023-07-13T08:50:27;3;3;
46681;PMS5003;34101;53.430;-2.224;2023-07-13T08:53:01;2;2;
46681;PMS5003;34101;53.430;-2.224;2023-07-13T08:55:31;1;1;
46681;PMS5003;34101;53.430;-2.224;2023-07-13T08:58:05;5;2;
46681;PMS5003;34101;53.430;-2.224;2023-07-13T09:00:39;1;1;
46681;PMS5003;34101;53.430;-2.224;2023-07-13T09:03:18;2;2;
46681;PMS5003;34101;53.430;-2.224;2023-07-13T09:05:51;1;1;
46681;PMS5003;34101;53.430;-2.224;2023-07-13T09:08:31;3;2;
46681;PMS5003;34101;53.430;-2.224;2023-07-13T09:11:10;2;1;
46681;PMS5003;34101;53.430;-2.224;2023-07-13T09:13:51;1;1;
46681;PMS5003;34101;53.430;-2.224;2023-07-13T09:16:25;1;1;
46681;PMS5003;34101;53.430;-2.224;2023-07-13T09:18:53;2;2;
46681;PMS5003;34101;53.430;-2.224;2023-07-13T09:21:28;2;2;
46681;PMS5003;34101;53.430;-2.224;2023-07-13T09:23:59;3;3;
46681;PMS5003;34101;53.430;-2.224;2023-07-13T09:26:31;2;2;
46681;PMS5003;34101;53.430;-2.224;2023-07-13T09:29:03;1;1;
46681;PMS5003;34101;53.430;-2.224;2023-07-13T09:31:41;2;2;
46681;PMS5003;34101;53.430;-2.224;2023-07-13T09:34:13;2;2;
46681;PMS5003;34101;53.430;-2.224;2023-07-13T09:36:40;3;1;
46681;PMS5003;34101;53.430;-2.224;2023-07-13T09:39:09;2;2;
46681;PMS5003;34101;53.430;-2.224;2023-07-13T09:41:41;3;3;
46681;PMS5003;34101;53.430;-2.224;2023-07-13T09:44:14;3;3;
46681;PMS5003;34101;53.430;-2.224;2023-07-13T09:46:45;2;2;
46681;PMS5003;34101;53.430;-2.224;2023-07-13T09:49:14;1;1;
46681;PMS5003;34101;53.430;-2.224;2023-07-13T09:51:41;4;3;
46681;PMS5003;34101;53.430;-2.224;2023-07-13T09:54:17;3;3;
46681;PMS5003;34101;53.430;-2.224;2023-07-13T09:56:46;2;2;
46681;PMS5003;34101;53.430;-2.224;2023-07-13T09:59:22;3;3;
46681;PMS5003;34101;53.430;-2.224;2023-07-13T10:01:51;2;2;
46681;PMS5003;34101;53.430;-2.224;2023-07-13T10:04:18;1;1;
46681;PMS5003;34101;53.430;-2.224;2023-07-13T10:06:49;1;1;
46681;PMS5003;34101;53.430;-2.224;2023-07-13T10:09:32;4;3;
46681;PMS5003;34101;53.430;-2.224;2023-07-13T10:11:59;2;2;
46681;PMS5003;34101;53.430;-2.224;2023-07-13T10:14:27;1;1;
46681;PMS5003;34101;53.430;-2.224;2023-07-13T10:16:59;1;1;
46681;PMS5003;34101;53.430;-2.224;2023-07-13T10:19:29;4;4;
46681;PMS5003;34101;53.430;-2.224;2023-07-13T10:22:02;2;2;
46681;PMS5003;34101;53.430;-2.224;2023-07-13T10:24:47;3;3;
46681;PMS5003;34101;53.430;-2.224;2023-07-13T10:27:16;2;2;
46681;PMS5003;34101;53.430;-2.224;2023-07-13T10:29:45;3;3;
46681;PMS5003;34101;53.430;-2.224;2023-07-13T10:32:15;2;2;
46681;PMS5003;34101;53.430;-2.224;2023-07-13T10:34:45;2;2;
46681;PMS5003;34101;53.430;-2.224;2023-07-13T10:37:15;3;3;
46681;PMS5003;34101;53.430;-2.224;2023-07-13T10:39:46;3;3;
46681;PMS5003;34101;53.430;-2.224;2023-07-13T10:42:16;4;3;
46681;PMS5003;34101;53.430;-2.224;2023-07-13T10:44:52;3;3;
46681;PMS5003;34101;53.430;-2.224;2023-07-13T10:47:19;3;3;
46681;PMS5003;34101;53.430;-2.224;2023-07-13T10:49:47;0;0;
46681;PMS5003;34101;53.430;-2.224;2023-07-13T10:52:53;3;3;
46681;PMS5003;34101;53.430;-2.224;2023-07-13T10:55:39;3;3;
46681;PMS5003;34101;53.430;-2.224;2023-07-13T10:58:21;2;2;
46681;PMS5003;34101;53.430;-2.224;2023-07-13T11:00:56;3;3;
46681;PMS5003;34101;53.430;-2.224;2023-07-13T11:03:31;4;4;
46681;PMS5003;34101;53.430;-2.224;2023-07-13T11:06:15;2;2;
46681;PMS5003;34101;53.430;-2.224;2023-07-13T11:08:56;2;2;
46681;PMS5003;34101;53.430;-2.224;2023-07-13T11:11:34;0;0;
46681;PMS5003;34101;53.430;-2.224;2023-07-13T11:14:04;1;1;
46681;PMS5003;34101;53.430;-2.224;2023-07-13T11:16:52;2;2;
46681;PMS5003;34101;53.430;-2.224;2023-07-13T11:19:40;2;2;
46681;PMS5003;34101;53.430;-2.224;2023-07-13T11:22:13;2;2;
46681;PMS5003;34101;53.430;-2.224;2023-07-13T11:24:49;2;2;
46681;PMS5003;34101;53.430;-2.224;2023-07-13T11:27:25;5;4;
46681;PMS5003;34101;53.430;-2.224;2023-07-13T11:30:13;3;3;
46681;PMS5003;34101;53.430;-2.224;2023-07-13T11:30:24;3;3;
46681;PMS5003;34101;53.430;-2.224;2023-07-13T11:33:02;5;3;
46681;PMS5003;34101;53.430;-2.224;2023-07-13T11:35:40;5;4;
46681;PMS5003;34101;53.430;-2.224;2023-07-13T11:38:13;4;4;
46681;PMS5003;34101;53.430;-2.224;2023-07-13T11:40:44;6;6;
46681;PMS5003;34101;53.430;-2.224;2023-07-13T11:43:13;4;4;
46681;PMS5003;34101;53.430;-2.224;2023-07-13T11:45:42;5;5;
46681;PMS5003;34101;53.430;-2.224;2023-07-13T11:48:19;4;4;
46681;PMS5003;34101;53.430;-2.224;2023-07-13T11:50:50;4;4;
46681;PMS5003;34101;53.430;-2.224;2023-07-13T11:53:22;5;4;
46681;PMS5003;34101;53.430;-2.224;2023-07-13T11:55:52;3;3;
46681;PMS5003;34101;53.430;-2.224;2023-07-13T11:58:23;5;3;
46681;PMS5003;34101;53.430;-2.224;2023-07-13T12:00:52;5;5;
46681;PMS5003;34101;53.430;-2.224;2023-07-13T12:03:22;6;6;
46681;PMS5003;34101;53.430;-2.224;2023-07-13T12:05:56;4;4;
46681;PMS5003;34101;53.430;-2.224;2023-07-13T12:08:25;5;5;
46681;PMS5003;34101;53.430;-2.224;2023-07-13T12:10:56;5;5;
46681;PMS5003;34101;53.430;-2.224;2023-07-13T12:13:26;7;7;
46681;PMS5003;34101;53.430;-2.224;2023-07-13T12:15:55;8;6;
46681;PMS5003;34101;53.430;-2.224;2023-07-13T12:18:30;4;4;
46681;PMS5003;34101;53.430;-2.224;2023-07-13T12:20:58;4;4;
46681;PMS5003;34101;53.430;-2.224;2023-07-13T12:23:28;7;7;
46681;PMS5003;34101;53.430;-2.224;2023-07-13T12:25:57;5;5;
46681;PMS5003;34101;53.430;-2.224;2023-07-13T12:28:31;6;6;
46681;PMS5003;34101;53.430;-2.224;2023-07-13T12:31:01;7;5;
46681;PMS5003;34101;53.430;-2.224;2023-07-13T12:33:33;6;5;
46681;PMS5003;34101;53.430;-2.224;2023-07-13T12:36:01;4;3;
46681;PMS5003;34101;53.430;-2.224;2023-07-13T12:38:31;3;3;
46681;PMS5003;34101;53.430;-2.224;2023-07-13T12:40:58;9;5;
46681;PMS5003;34101;53.430;-2.224;2023-07-13T12:43:28;4;4;
46681;PMS5003;34101;53.430;-2.224;2023-07-13T12:46:03;4;4;
46681;PMS5003;34101;53.430;-2.224;2023-07-13T12:48:43;3;3;
46681;PMS5003;34101;53.430;-2.224;2023-07-13T12:51:14;4;2;
46681;PMS5003;34101;53.430;-2.224;2023-07-13T12:53:43;2;2;
46681;PMS5003;34101;53.430;-2.224;2023-07-13T12:56:16;4;3;
46681;PMS5003;34101;53.430;-2.224;2023-07-13T12:58:47;3;3;
46681;PMS5003;34101;53.430;-2.224;2023-07-13T13:01:16;3;2;
46681;PMS5003;34101;53.430;-2.224;2023-07-13T13:03:45;3;3;
46681;PMS5003;34101;53.430;-2.224;2023-07-13T13:06:20;2;2;
46681;PMS5003;34101;53.430;-2.224;2023-07-13T13:08:51;4;2;
46681;PMS5003;34101;53.430;-2.224;2023-07-13T13:11:21;2;2;
46681;PMS5003;34101;53.430;-2.224;2023-07-13T13:13:49;3;2;
46681;PMS5003;34101;53.430;-2.224;2023-07-13T13:16:19;4;4;
46681;PMS5003;34101;53.430;-2.224;2023-07-13T13:18:50;4;4;
46681;PMS5003;34101;53.430;-2.224;2023-07-13T13:21:19;2;2;
46681;PMS5003;34101;53.430;-2.224;2023-07-13T13:23:47;3;3;
46681;PMS5003;34101;53.430;-2.224;2023-07-13T13:26:15;3;3;
46681;PMS5003;34101;53.430;-2.224;2023-07-13T13:28:42;4;4;
46681;PMS5003;34101;53.430;-2.224;2023-07-13T13:31:11;4;4;
46681;PMS5003;34101;53.430;-2.224;2023-07-13T13:33:39;3;3;
46681;PMS5003;34101;53.430;-2.224;2023-07-13T13:36:08;4;2;
46681;PMS5003;34101;53.430;-2.224;2023-07-13T13:38:40;4;4;
46681;PMS5003;34101;53.430;-2.224;2023-07-13T13:41:08;3;3;
46681;PMS5003;34101;53.430;-2.224;2023-07-13T13:43:37;4;4;
46681;PMS5003;34101;53.430;-2.224;2023-07-13T13:46:11;5;4;
46681;PMS5003;34101;53.430;-2.224;2023-07-13T13:48:43;2;2;
46681;PMS5003;34101;53.430;-2.224;2023-07-13T13:51:13;4;4;
46681;PMS5003;34101;53.430;-2.224;2023-07-13T13:53:42;3;3;
46681;PMS5003;34101;53.430;-2.224;2023-07-13T13:56:11;2;2;
46681;PMS5003;34101;53.430;-2.224;2023-07-13T13:58:39;5;4;
46681;PMS5003;34101;53.430;-2.224;2023-07-13T14:01:12;5;5;
46681;PMS5003;34101;53.430;-2.224;2023-07-13T14:03:47;3;3;
46681;PMS5003;34101;53.430;-2.224;2023-07-13T14:06:15;4;3;
46681;PMS5003;34101;53.430;-2.224;2023-07-13T14:08:43;5;5;
46681;PMS5003;34101;53.430;-2.224;2023-07-13T14:11:11;6;4;
46681;PMS5003;34101;53.430;-2.224;2023-07-13T14:13:40;6;4;
46681;PMS5003;34101;53.430;-2.224;2023-07-13T14:16:12;4;4;
46681;PMS5003;34101;53.430;-2.224;2023-07-13T14:18:43;4;4;
46681;PMS5003;34101;53.430;-2.224;2023-07-13T14:21:13;4;3;
46681;PMS5003;34101;53.430;-2.224;2023-07-13T14:23:41;5;5;
46681;PMS5003;34101;53.430;-2.224;2023-07-13T14:26:12;4;4;
46681;PMS5003;34101;53.430;-2.224;2023-07-13T14:28:41;7;6;
46681;PMS5003;34101;53.430;-2.224;2023-07-13T14:31:10;3;3;
46681;PMS5003;34101;53.430;-2.224;2023-07-13T14:33:39;3;3;
46681;PMS5003;34101;53.430;-2.224;2023-07-13T14:36:13;1;1;
46681;PMS5003;34101;53.430;-2.224;2023-07-13T14:38:49;3;3;
46681;PMS5003;34101;53.430;-2.224;2023-07-13T14:41:32;5;3;
46681;PMS5003;34101;53.430;-2.224;2023-07-13T14:44:00;4;4;
46681;PMS5003;34101;53.430;-2.224;2023-07-13T14:46:28;2;2;
46681;PMS5003;34101;53.430;-2.224;2023-07-13T14:49:00;3;3;
46681;PMS5003;34101;53.430;-2.224;2023-07-13T14:51:30;3;3;
46681;PMS5003;34101;53.430;-2.224;2023-07-13T14:53:57;2;2;
46681;PMS5003;34101;53.430;-2.224;2023-07-13T14:56:27;5;3;
46681;PMS5003;34101;53.430;-2.224;2023-07-13T14:58:55;3;3;
46681;PMS5003;34101;53.430;-2.224;2023-07-13T15:01:23;3;3;
46681;PMS5003;34101;53.430;-2.224;2023-07-13T15:03:51;3;3;
46681;PMS5003;34101;53.430;-2.224;2023-07-13T15:06:19;4;4;
46681;PMS5003;34101;53.430;-2.224;2023-07-13T15:08:47;2;2;
46681;PMS5003;34101;53.430;-2.224;2023-07-13T15:11:14;3;3;
46681;PMS5003;34101;53.430;-2.224;2023-07-13T15:13:43;3;3;
46681;PMS5003;34101;53.430;-2.224;2023-07-13T15:16:14;3;3;
46681;PMS5003;34101;53.430;-2.224;2023-07-13T15:18:50;3;3;
46681;PMS5003;34101;53.430;-2.224;2023-07-13T15:21:19;3;3;
46681;PMS5003;34101;53.430;-2.224;2023-07-13T15:23:49;4;4;
46681;PMS5003;34101;53.430;-2.224;2023-07-13T15:26:17;4;4;
46681;PMS5003;34101;53.430;-2.224;2023-07-13T15:28:46;3;3;
46681;PMS5003;34101;53.430;-2.224;2023-07-13T15:31:18;3;3;
46681;PMS5003;34101;53.430;-2.224;2023-07-13T15:33:46;3;3;
46681;PMS5003;34101;53.430;-2.224;2023-07-13T15:36:15;3;3;
46681;PMS5003;34101;53.430;-2.224;2023-07-13T15:38:48;3;3;
46681;PMS5003;34101;53.430;-2.224;2023-07-13T15:41:18;3;3;
46681;PMS5003;34101;53.430;-2.224;2023-07-13T15:43:47;3;2;
46681;PMS5003;34101;53.430;-2.224;2023-07-13T15:46:15;4;4;
46681;PMS5003;34101;53.430;-2.224;2023-07-13T15:48:45;3;3;
46681;PMS5003;34101;53.430;-2.224;2023-07-13T15:51:15;3;3;
46681;PMS5003;34101;53.430;-2.224;2023-07-13T15:53:47;2;2;
46681;PMS5003;34101;53.430;-2.224;2023-07-13T15:56:17;2;2;
46681;PMS5003;34101;53.430;-2.224;2023-07-13T15:58:47;1;1;
46681;PMS5003;34101;53.430;-2.224;2023-07-13T16:01:15;2;2;
46681;PMS5003;34101;53.430;-2.224;2023-07-13T16:03:43;3;3;
46681;PMS5003;34101;53.430;-2.224;2023-07-13T16:06:12;6;3;
46681;PMS5003;34101;53.430;-2.224;2023-07-13T16:08:43;5;4;
46681;PMS5003;34101;53.430;-2.224;2023-07-13T16:11:18;3;3;
46681;PMS5003;34101;53.430;-2.224;2023-07-13T16:13:47;4;2;
46681;PMS5003;34101;53.430;-2.224;2023-07-13T16:16:15;3;3;
46681;PMS5003;34101;53.430;-2.224;2023-07-13T16:18:43;2;2;
46681;PMS5003;34101;53.430;-2.224;2023-07-13T16:21:11;2;2;
46681;PMS5003;34101;53.430;-2.224;2023-07-13T16:23:39;3;3;
46681;PMS5003;34101;53.430;-2.224;2023-07-13T16:26:15;3;3;
46681;PMS5003;34101;53.430;-2.224;2023-07-13T16:28:53;4;4;
46681;PMS5003;34101;53.430;-2.224;2023-07-13T16:31:20;1;1;
46681;PMS5003;34101;53.430;-2.224;2023-07-13T16:33:48;3;3;
46681;PMS5003;34101;53.430;-2.224;2023-07-13T16:36:15;4;4;
46681;PMS5003;34101;53.430;-2.224;2023-07-13T16:38:43;2;2;
46681;PMS5003;34101;53.430;-2.224;2023-07-13T16:41:10;4;4;
46681;PMS5003;34101;53.430;-2.224;2023-07-13T16:43:38;2;2;
46681;PMS5003;34101;53.430;-2.224;2023-07-13T16:46:07;4;4;
46681;PMS5003;34101;53.430;-2.224;2023-07-13T16:48:38;2;2;